Time;durP1;ratioP1;P1;durP2;ratioP2;P2;SDS_P1;SDS_P2;PMS_P1;PMS_P2;Temp;Humidity;BMP_temperature;BMP_pressure;BME280_temperature;BME280_humidity;BME280_pressure;Samples;Min_cycle;Max_cycle;Signal;HPM_P1;HPM_P2
2022/03/20 00:00:34;;;;;;;66.10;33.72;;;102.60;1561.60;;;;;;4973639;28;20096;-53
2022/03/20 00:03:04;;;;;;;56.38;27.08;;;102.50;1587.20;;;;;;4973397;28;20062;-54
2022/03/20 00:05:30;;;;;;;30.45;16.55;;;102.50;1561.60;;;;;;4973580;28;20398;-54
2022/03/20 00:07:56;;;;;;;39.53;21.63;;;102.60;1536.00;;;;;;4973638;28;20035;-53
2022/03/20 00:10:21;;;;;;;40.90;22.35;;;102.60;1536.00;;;;;;4952888;28;20397;-55
2022/03/20 00:12:47;;;;;;;34.92;20.02;;;102.60;1510.40;;;;;;4972893;28;20039;-55
2022/03/20 00:15:13;;;;;;;55.15;29.63;;;102.60;1536.00;;;;;;4973565;28;20494;-55
2022/03/20 00:17:38;;;;;;;52.05;27.20;;;102.50;1536.00;;;;;;4973073;28;20446;-54
2022/03/20 00:20:05;;;;;;;82.20;41.47;;;102.50;1561.60;;;;;;4973327;28;20119;-55
2022/03/20 00:22:32;;;;;;;158.63;72.10;;;102.50;1587.20;;;;;;4972851;28;20033;-55
2022/03/20 00:24:58;;;;;;;65.80;33.03;;;77.70;1587.20;;;;;;4972666;28;20041;-55
2022/03/20 00:27:24;;;;;;;70.40;35.38;;;102.40;1561.60;;;;;;4972995;28;20031;-54
2022/03/20 00:29:50;;;;;;;88.68;40.88;;;102.40;1561.60;;;;;;4973181;28;20031;-54
2022/03/20 00:32:19;;;;;;;162.35;64.25;;;77.70;1587.20;;;;;;4972983;28;20034;-54
2022/03/20 00:34:45;;;;;;;47.58;22.50;;;77.70;1587.20;;;;;;4973410;28;20359;-55
2022/03/20 00:37:11;;;;;;;22.00;14.25;;;77.60;1587.20;;;;;;4973074;28;20477;-54
2022/03/20 00:39:37;;;;;;;30.67;15.48;;;77.60;1587.20;;;;;;4972896;28;20018;-55
2022/03/20 00:42:04;;;;;;;29.25;16.77;;;77.50;1587.20;;;;;;4972754;28;20041;-54
2022/03/20 00:44:30;;;;;;;31.98;15.10;;;77.50;1612.80;;;;;;4972530;28;20046;-54
2022/03/20 00:46:56;;;;;;;32.55;17.73;;;77.40;1612.80;;;;;;4972906;28;20367;-54
2022/03/20 00:49:22;;;;;;;53.47;22.50;;;77.30;1612.80;;;;;;4972732;28;20081;-54
2022/03/20 00:51:48;;;;;;;110.07;45.25;;;77.30;1638.40;;;;;;4972731;28;20019;-54
2022/03/20 00:54:13;;;;;;;126.90;54.38;;;77.30;1638.40;;;;;;4972824;28;20023;-54
2022/03/20 00:56:39;;;;;;;46.33;22.58;;;77.30;1638.40;;;;;;4972429;28;20389;-54
2022/03/20 00:59:05;;;;;;;19.80;12.27;;;77.30;1638.40;;;;;;4972764;28;20023;-54
2022/03/20 01:01:32;;;;;;;23.75;13.60;;;77.20;1638.40;;;;;;4972448;28;20118;-55
2022/03/20 01:03:58;;;;;;;26.42;14.13;;;77.10;1664.00;;;;;;4972182;28;20066;-54
2022/03/20 01:06:24;;;;;;;23.92;15.38;;;76.90;1664.00;;;;;;4972485;28;20027;-54
2022/03/20 01:08:50;;;;;;;47.53;23.20;;;76.90;1689.60;;;;;;4972296;28;20035;-54
2022/03/20 01:11:17;;;;;;;29.65;16.75;;;76.90;1689.60;;;;;;4972157;28;20058;-54
2022/03/20 01:13:43;;;;;;;26.42;13.98;;;76.80;1689.60;;;;;;4954041;28;20381;-54
2022/03/20 01:16:09;;;;;;;32.75;17.10;;;76.80;1689.60;;;;;;4972283;28;20255;-54
2022/03/20 01:18:36;;;;;;;26.15;14.32;;;76.80;1689.60;;;;;;4972453;28;20026;-54
2022/03/20 01:21:02;;;;;;;27.23;17.45;;;76.80;1689.60;;;;;;4972303;28;20489;-54
2022/03/20 01:23:29;;;;;;;33.53;16.77;;;77.00;1689.60;;;;;;4972018;28;20045;-54
2022/03/20 01:25:55;;;;;;;26.60;14.07;;;76.80;1689.60;;;;;;4972020;28;20027;-54
2022/03/20 01:28:23;;;;;;;23.65;13.98;;;52.00;1715.20;;;;;;4971820;28;20489;-54
2022/03/20 01:30:48;;;;;;;31.02;16.15;;;52.10;1715.20;;;;;;4972009;28;20031;-55
2022/03/20 01:33:15;;;;;;;25.88;17.35;;;52.00;1715.20;;;;;;4972319;28;20427;-55
2022/03/20 01:35:41;;;;;;;33.72;18.73;;;52.10;1715.20;;;;;;4971953;28;20114;-54
2022/03/20 01:38:08;;;;;;;49.53;25.77;;;76.80;1715.20;;;;;;4971140;28;20118;-55
2022/03/20 01:40:34;;;;;;;30.90;18.63;;;76.80;1740.80;;;;;;4971811;28;20034;-54
2022/03/20 01:43:00;;;;;;;37.28;20.30;;;52.10;1740.80;;;;;;4971624;28;20101;-54
2022/03/20 01:45:26;;;;;;;36.75;18.50;;;52.10;1740.80;;;;;;4951521;29;20390;-54
2022/03/20 01:47:53;;;;;;;32.78;17.98;;;76.80;1740.80;;;;;;4963677;28;20023;-54
2022/03/20 01:50:21;;;;;;;31.85;15.48;;;52.10;1740.80;;;;;;4971675;28;20061;-55
2022/03/20 01:52:48;;;;;;;43.47;22.65;;;52.10;1766.40;;;;;;4971569;28;20041;-55
2022/03/20 01:55:19;;;;;;;43.90;18.60;;;52.10;1766.40;;;;;;4971807;28;20034;-54
2022/03/20 01:57:45;;;;;;;24.17;14.38;;;52.10;1766.40;;;;;;4971740;28;20534;-54
2022/03/20 02:00:14;;;;;;;21.45;13.80;;;51.80;1766.40;;;;;;4971555;28;20050;-53
2022/03/20 02:02:40;;;;;;;27.95;14.52;;;51.80;1766.40;;;;;;4970975;28;20066;-54
2022/03/20 02:05:10;;;;;;;29.98;15.73;;;51.80;1766.40;;;;;;4971592;28;20043;-54
2022/03/20 02:07:38;;;;;;;42.90;18.45;;;51.90;1766.40;;;;;;4971525;28;20039;-54
2022/03/20 02:10:08;;;;;;;36.42;17.75;;;51.80;1792.00;;;;;;4971474;28;20034;-54
2022/03/20 02:12:36;;;;;;;34.40;17.75;;;51.80;1792.00;;;;;;4971302;28;20030;-54
2022/03/20 02:15:03;;;;;;;34.70;17.30;;;51.80;1792.00;;;;;;4971230;28;20090;-54
2022/03/20 02:17:30;;;;;;;29.77;15.93;;;51.80;1817.60;;;;;;4971355;28;20466;-54
2022/03/20 02:19:57;;;;;;;33.85;17.55;;;51.80;1792.00;;;;;;4971398;28;20433;-55
2022/03/20 02:22:24;;;;;;;32.45;18.05;;;51.60;1817.60;;;;;;4971323;28;20069;-54
2022/03/20 02:24:51;;;;;;;32.50;15.68;;;51.60;1817.60;;;;;;4971060;28;20038;-55
2022/03/20 02:27:27;;;;;;;32.88;19.45;;;51.60;1817.60;;;;;;4971178;28;20034;-54
2022/03/20 02:29:58;;;;;;;38.20;20.90;;;51.60;1817.60;;;;;;4971071;28;20071;-54
2022/03/20 02:32:29;;;;;;;30.38;15.80;;;51.60;1843.20;;;;;;4971075;28;20023;-54
2022/03/20 02:35:01;;;;;;;35.38;18.20;;;51.50;1843.20;;;;;;4950740;29;20031;-54
2022/03/20 02:37:28;;;;;;;35.92;20.77;;;51.50;1843.20;;;;;;4967649;28;20027;-54
2022/03/20 02:39:56;;;;;;;74.22;33.63;;;51.50;1868.80;;;;;;4971403;28;20053;-54
2022/03/20 02:42:23;;;;;;;59.38;33.40;;;51.40;1868.80;;;;;;4970981;28;20019;-54
2022/03/20 02:45:02;;;;;;;45.30;22.92;;;51.40;1868.80;;;;;;4971085;28;20090;-55
2022/03/20 02:47:33;;;;;;;37.10;21.10;;;51.40;1868.80;;;;;;4971095;28;20031;-54
2022/03/20 02:50:07;;;;;;;38.97;22.73;;;51.40;1868.80;;;;;;4974883;28;20086;-54
2022/03/20 02:52:46;;;;;;;32.97;19.45;;;51.30;1894.40;;;;;;4975121;28;20147;-54
2022/03/20 02:55:13;;;;;;;42.30;23.20;;;51.30;1894.40;;;;;;4975101;28;20038;-54
2022/03/20 02:57:40;;;;;;;37.78;19.27;;;51.30;1894.40;;;;;;4974663;28;20034;-55
2022/03/20 03:00:07;;;;;;;30.45;20.40;;;51.20;1894.40;;;;;;4975049;28;20659;-54
2022/03/20 03:02:44;;;;;;;38.83;21.08;;;51.20;1894.40;;;;;;4974360;28;20039;-53
2022/03/20 03:05:14;;;;;;;29.45;16.52;;;51.20;1894.40;;;;;;4974836;28;20446;-54
2022/03/20 03:13:12;;;;;;;25.27;15.27;;;26.30;1868.80;;;;;;4974748;28;20069;-54
2022/03/20 03:15:38;;;;;;;21.77;13.63;;;26.40;1868.80;;;;;;4974598;28;20039;-54
2022/03/20 03:18:03;;;;;;;28.95;16.13;;;26.30;1868.80;;;;;;4974645;28;20377;-54
2022/03/20 03:20:30;;;;;;;24.95;15.32;;;26.30;1894.40;;;;;;4974483;28;20038;-54
2022/03/20 03:22:55;;;;;;;25.40;16.35;;;26.40;1868.80;;;;;;4974517;28;20059;-54
2022/03/20 03:25:23;;;;;;;26.65;17.42;;;26.30;1868.80;;;;;;4974153;28;20018;-54
2022/03/20 03:27:49;;;;;;;30.45;16.77;;;26.30;1868.80;;;;;;4973865;28;20067;-54
2022/03/20 03:30:15;;;;;;;26.02;17.33;;;26.30;1894.40;;;;;;4974471;28;20474;-54
2022/03/20 03:32:42;;;;;;;23.65;15.00;;;26.30;1894.40;;;;;;4974062;28;20035;-54
2022/03/20 03:37:59;;;;;;;32.13;20.25;;;26.10;1920.00;;;;;;4966859;28;20057;-55
2022/03/20 03:40:26;;;;;;;37.45;19.52;;;26.20;1945.60;;;;;;4974272;28;20046;-54
2022/03/20 03:42:52;;;;;;;33.72;21.20;;;26.10;1920.00;;;;;;4973832;28;20070;-54
2022/03/20 03:45:18;;;;;;;41.30;24.25;;;26.10;1945.60;;;;;;4974003;28;20035;-55
2022/03/20 03:47:43;;;;;;;49.20;26.13;;;26.00;1945.60;;;;;;4974195;28;20070;-53
2022/03/20 03:50:10;;;;;;;49.45;26.95;;;26.10;1945.60;;;;;;4952807;29;20046;-54
2022/03/20 03:52:39;;;;;;;46.53;26.88;;;26.00;1945.60;;;;;;4971895;28;20031;-54
2022/03/20 03:55:05;;;;;;;49.78;23.95;;;26.10;1945.60;;;;;;4973877;28;20054;-54
2022/03/20 03:57:32;;;;;;;72.03;36.60;;;26.10;1920.00;;;;;;4973375;28;20373;-54
2022/03/20 03:59:58;;;;;;;30.40;20.45;;;26.00;1945.60;;;;;;4952508;28;20023;-54
2022/03/20 04:02:24;;;;;;;40.85;22.25;;;26.00;1920.00;;;;;;4969999;28;20031;-54
2022/03/20 04:04:50;;;;;;;42.38;22.08;;;26.00;1920.00;;;;;;4973282;28;20468;-54
2022/03/20 04:07:21;;;;;;;33.90;22.67;;;26.00;1945.60;;;;;;4973619;28;20034;-55
2022/03/20 04:09:47;;;;;;;30.65;17.42;;;25.80;1945.60;;;;;;4973530;28;20030;-55
2022/03/20 04:12:14;;;;;;;27.67;12.52;;;25.70;1971.20;;;;;;4973883;28;20030;-54
2022/03/20 04:14:42;;;;;;;26.33;14.85;;;25.70;1945.60;;;;;;4973280;28;20041;-54
2022/03/20 04:17:12;;;;;;;25.48;19.83;;;25.60;1945.60;;;;;;4973254;28;20505;-54
2022/03/20 04:19:38;;;;;;;23.42;14.07;;;0.90;1971.20;;;;;;4973363;28;20058;-54
2022/03/20 04:22:04;;;;;;;28.85;15.18;;;0.60;1996.80;;;;;;4973374;28;20027;-54
2022/03/20 04:24:30;;;;;;;21.23;13.50;;;0.60;2022.40;;;;;;4972952;28;20043;-54
2022/03/20 04:26:58;;;;;;;24.90;14.55;;;0.50;2022.40;;;;;;4973464;28;20082;-53
2022/03/20 04:29:27;;;;;;;27.88;17.77;;;0.70;1996.80;;;;;;4973445;28;20150;-53
2022/03/20 04:31:54;;;;;;;34.88;23.63;;;0.60;1996.80;;;;;;4973040;28;20366;-54
2022/03/20 04:34:21;;;;;;;29.65;20.25;;;0.70;1996.80;;;;;;4973034;28;20082;-54
2022/03/20 04:36:46;;;;;;;34.72;19.88;;;0.60;2022.40;;;;;;4973186;28;20038;-54
2022/03/20 04:39:12;;;;;;;26.55;16.80;;;0.60;2022.40;;;;;;4972947;28;20149;-54
2022/03/20 04:41:38;;;;;;;22.38;13.60;;;0.20;2048.00;;;;;;4972769;28;20026;-54
2022/03/20 04:44:06;;;;;;;37.15;22.02;;;0.00;2048.00;;;;;;4973014;28;20053;-54
2022/03/20 04:46:32;;;;;;;49.03;23.00;;;0.20;2048.00;;;;;;4972919;28;20027;-53
2022/03/20 04:59:54;;;;;;;117.65;51.50;;;0.90;1996.80;;;;;;4965091;28;20162;-54
2022/03/20 05:02:20;;;;;;;60.67;28.38;;;25.60;1996.80;;;;;;4972171;28;20113;-55
2022/03/20 05:04:46;;;;;;;59.33;30.17;;;0.90;2022.40;;;;;;4972366;28;20058;-54
2022/03/20 05:07:12;;;;;;;114.53;54.67;;;0.70;2022.40;;;;;;4972717;28;20074;-54
2022/03/20 05:15:10;;;;;;;46.85;25.33;;;0.60;2048.00;;;;;;4972598;28;20492;-54
2022/03/20 05:17:36;;;;;;;50.67;25.73;;;0.70;2022.40;;;;;;4972323;28;20450;-54
2022/03/20 05:20:03;;;;;;;38.42;21.50;;;0.90;1996.80;;;;;;4972245;28;20113;-54
2022/03/20 05:22:28;;;;;;;30.52;20.70;;;0.90;1996.80;;;;;;4971940;28;20031;-54
2022/03/20 05:24:54;;;;;;;32.78;14.85;;;25.60;1996.80;;;;;;4972286;28;20035;-54
2022/03/20 05:27:20;;;;;;;25.25;14.40;;;0.90;2022.40;;;;;;4971849;28;20473;-53
2022/03/20 05:29:46;;;;;;;23.38;14.45;;;0.90;2048.00;;;;;;4972001;28;20065;-55
2022/03/20 05:32:12;;;;;;;31.35;17.10;;;25.60;2048.00;;;;;;4971917;28;20034;-54
2022/03/20 05:34:38;;;;;;;31.63;20.58;;;25.70;2022.40;;;;;;4971949;28;20035;-55
2022/03/20 05:37:04;;;;;;;26.42;17.05;;;25.70;2022.40;;;;;;4972091;28;20041;-53
2022/03/20 05:39:30;;;;;;;25.95;14.48;;;25.70;2022.40;;;;;;4971657;28;20043;-53
2022/03/20 05:41:55;;;;;;;33.47;16.02;;;25.60;2022.40;;;;;;4971888;28;20042;-54
2022/03/20 05:44:23;;;;;;;26.85;17.83;;;0.90;2022.40;;;;;;4971463;28;20035;-53
2022/03/20 05:46:50;;;;;;;25.38;14.73;;;25.70;2022.40;;;;;;4971766;28;20465;-54
2022/03/20 05:49:17;;;;;;;24.85;14.25;;;25.70;2022.40;;;;;;4971839;28;20462;-54
2022/03/20 05:51:44;;;;;;;24.55;14.70;;;25.90;1996.80;;;;;;4971997;28;20519;-53
2022/03/20 05:54:10;;;;;;;18.40;11.60;;;26.30;1945.60;;;;;;4971532;28;20043;-53
2022/03/20 05:59:20;;;;;;;29.02;14.18;;;26.50;1920.00;;;;;;4971723;28;20042;-54
2022/03/20 06:01:46;;;;;;;31.38;17.35;;;51.20;1945.60;;;;;;4971574;28;20023;-55
2022/03/20 06:04:13;;;;;;;32.40;16.38;;;51.40;1894.40;;;;;;4971429;28;20416;-53
2022/03/20 06:06:40;;;;;;;40.13;23.73;;;51.60;1894.40;;;;;;4971536;28;20082;-53
2022/03/20 06:09:06;;;;;;;35.67;21.30;;;51.80;1868.80;;;;;;4971623;28;20595;-54
2022/03/20 06:11:35;;;;;;;33.15;18.52;;;103.20;1740.80;;;;;;4971151;28;20019;-54
2022/03/20 06:14:02;;;;;;;37.42;22.10;;;179.60;1536.00;;;;;;4971116;28;20038;-54
2022/03/20 06:16:28;;;;;;;44.05;29.02;;;231.00;1331.20;;;;;;4971425;28;20390;-54
2022/03/20 06:18:54;;;;;;;93.03;59.15;;;256.50;1228.80;;;;;;4971299;28;20031;-55
2022/03/20 06:21:20;;;;;;;69.15;48.90;;;307.90;1177.60;;;;;;4971115;28;20113;-55
2022/03/20 06:23:46;;;;;;;61.13;43.28;;;358.50;1126.40;;;;;;4970698;28;20510;-55
2022/03/20 06:26:12;;;;;;;75.70;51.10;;;358.80;1075.20;;;;;;4970959;28;20026;-56
2022/03/20 06:28:40;;;;;;;74.95;53.35;;;384.00;1075.20;;;;;;4970662;28;20034;-55
2022/03/20 06:31:10;;;;;;;67.95;51.03;;;358.90;1075.20;;;;;;4971153;28;20030;-54
2022/03/20 06:33:37;;;;;;;54.67;39.92;;;409.70;1049.60;;;;;;4971240;28;20438;-54
2022/03/20 06:36:03;;;;;;;52.03;37.63;;;410.40;998.40;;;;;;4971044;28;20027;-55
2022/03/20 06:38:30;;;;;;;45.92;31.90;;;435.40;947.20;;;;;;4970891;28;20027;-54
2022/03/20 06:40:56;;;;;;;48.08;31.30;;;410.40;947.20;;;;;;4971036;28;20102;-55
2022/03/20 06:43:23;;;;;;;46.80;33.72;;;436.00;921.60;;;;;;4970566;28;20043;-55
2022/03/20 06:45:50;;;;;;;38.83;32.72;;;435.90;947.20;;;;;;4970922;28;20030;-55
2022/03/20 06:48:16;;;;;;;34.55;27.30;;;435.80;921.60;;;;;;4971122;28;20035;-55
2022/03/20 06:50:42;;;;;;;64.68;52.65;;;461.30;896.00;;;;;;4970818;28;20019;-54
2022/03/20 06:53:08;;;;;;;63.25;51.15;;;486.90;870.40;;;;;;4970738;28;20492;-56
2022/03/20 06:55:33;;;;;;;42.13;34.20;;;486.90;870.40;;;;;;4970877;28;20027;-55
2022/03/20 06:58:00;;;;;;;37.88;33.85;;;487.10;870.40;;;;;;4970449;28;20039;-55
2022/03/20 07:00:26;;;;;;;46.78;41.67;;;487.30;870.40;;;;;;4970817;28;20027;-55
2022/03/20 07:02:55;;;;;;;45.35;38.88;;;512.50;844.80;;;;;;4970444;28;20130;-56
2022/03/20 07:05:22;;;;;;;31.73;22.85;;;537.70;819.20;;;;;;4970679;28;20137;-55
2022/03/20 07:07:50;;;;;;;53.38;46.15;;;512.50;793.60;;;;;;4970496;28;20041;-56
2022/03/20 07:10:19;;;;;;;17.10;14.23;;;512.50;819.20;;;;;;4970807;28;20030;-55
2022/03/20 07:12:45;;;;;;;23.88;21.48;;;461.60;870.40;;;;;;4970690;28;20105;-55
2022/03/20 07:15:11;;;;;;;15.88;13.02;;;512.00;819.20;;;;;;4970528;28;20613;-55
2022/03/20 07:17:37;;;;;;;14.52;12.20;;;486.70;819.20;;;;;;4970858;28;20122;-55
2022/03/20 07:20:09;;;;;;;14.55;10.88;;;461.60;870.40;;;;;;4970604;28;20027;-55
2022/03/20 07:22:35;;;;;;;21.85;16.58;;;461.40;844.80;;;;;;4970554;28;20022;-55
2022/03/20 07:29:29;;;;;;;14.07;11.23;;;487.20;793.60;;;;;;4970391;28;20031;-56
2022/03/20 07:30:31;;;;;;;18.20;13.85;;;435.90;844.80;;;;;;4970527;28;20494;-55
2022/03/20 07:32:57;;;;;;;13.95;12.43;;;461.30;844.80;;;;;;4970539;28;20035;-55
2022/03/20 07:35:24;;;;;;;22.00;17.67;;;486.50;819.20;;;;;;4971880;28;20030;-55
2022/03/20 07:37:50;;;;;;;18.25;15.10;;;487.30;793.60;;;;;;4973702;28;20456;-55
2022/03/20 07:40:16;;;;;;;15.50;11.57;;;486.70;768.00;;;;;;4973949;28;20030;-55
2022/03/20 07:42:42;;;;;;;18.23;14.00;;;436.10;768.00;;;;;;4973928;28;20027;-55
2022/03/20 07:45:09;;;;;;;23.17;15.65;;;461.00;793.60;;;;;;4973689;28;20434;-55
2022/03/20 07:47:35;;;;;;;23.25;17.23;;;410.50;819.20;;;;;;4973777;28;20470;-55
2022/03/20 07:50:01;;;;;;;17.17;13.10;;;486.80;742.40;;;;;;4953303;29;20535;-56
2022/03/20 07:52:28;;;;;;;12.68;10.55;;;486.50;742.40;;;;;;4970359;28;20100;-55
2022/03/20 07:54:54;;;;;;;19.45;11.80;;;435.90;768.00;;;;;;4973731;28;20031;-55
2022/03/20 07:57:20;;;;;;;35.08;27.60;;;486.70;742.40;;;;;;4973473;28;20086;-55
2022/03/20 07:59:47;;;;;;;28.92;22.40;;;512.10;716.80;;;;;;4973672;28;20034;-55
2022/03/20 08:02:13;;;;;;;22.38;18.52;;;487.10;742.40;;;;;;4973199;28;20456;-54
2022/03/20 08:04:40;;;;;;;20.50;16.73;;;487.20;716.80;;;;;;4973110;28;20146;-56
2022/03/20 08:07:06;;;;;;;31.17;21.40;;;512.20;716.80;;;;;;4973519;28;20030;-55
2022/03/20 08:09:32;;;;;;;22.00;15.07;;;461.20;742.40;;;;;;4973183;28;20027;-54
2022/03/20 08:11:58;;;;;;;15.70;12.65;;;486.60;742.40;;;;;;4973197;28;20077;-56
2022/03/20 08:14:24;;;;;;;20.55;18.42;;;512.20;691.20;;;;;;4973417;28;20110;-55
2022/03/20 08:16:50;;;;;;;16.00;14.30;;;538.00;716.80;;;;;;4973346;28;20110;-56
2022/03/20 08:19:19;;;;;;;13.07;11.75;;;512.50;691.20;;;;;;4973242;28;20019;-56
2022/03/20 08:21:47;;;;;;;20.25;14.48;;;563.20;691.20;;;;;;4973184;28;20031;-56
2022/03/20 08:24:14;;;;;;;21.70;14.82;;;487.30;691.20;;;;;;4973179;28;20070;-56
2022/03/20 08:26:40;;;;;;;16.65;14.13;;;486.50;691.20;;;;;;4973035;28;20045;-55
2022/03/20 08:29:12;;;;;;;15.85;13.18;;;486.40;742.40;;;;;;4973021;28;20027;-56
2022/03/20 08:31:43;;;;;;;20.30;17.35;;;512.10;691.20;;;;;;4973017;28;20027;-54
2022/03/20 08:34:09;;;;;;;11.85;10.63;;;487.10;691.20;;;;;;4972767;28;20031;-54
2022/03/20 08:36:35;;;;;;;12.55;10.82;;;538.20;665.60;;;;;;4972755;28;20030;-54
2022/03/20 08:39:01;;;;;;;13.23;11.15;;;512.90;665.60;;;;;;4972556;28;20381;-56
2022/03/20 08:41:27;;;;;;;16.23;14.55;;;512.50;691.20;;;;;;4972853;28;20030;-54
2022/03/20 08:43:53;;;;;;;21.15;11.80;;;486.90;716.80;;;;;;4972750;28;20042;-53
2022/03/20 08:46:19;;;;;;;43.65;36.22;;;486.60;716.80;;;;;;4972355;28;20026;-54
2022/03/20 08:48:45;;;;;;;17.73;15.90;;;512.80;691.20;;;;;;4972729;28;20113;-56
2022/03/20 08:51:10;;;;;;;14.93;13.00;;;512.40;665.60;;;;;;4972381;28;20038;-53
2022/03/20 08:53:36;;;;;;;15.43;13.77;;;512.20;691.20;;;;;;4972798;28;20035;-53
2022/03/20 08:56:02;;;;;;;20.73;18.58;;;487.00;716.80;;;;;;4972509;28;20492;-54
2022/03/20 08:58:28;;;;;;;20.48;17.27;;;512.60;691.20;;;;;;4972198;28;20031;-54
2022/03/20 09:00:57;;;;;;;22.90;19.13;;;486.70;742.40;;;;;;4972411;28;20389;-53
2022/03/20 09:03:23;;;;;;;13.43;11.68;;;487.30;691.20;;;;;;4972262;28;20189;-53
2022/03/20 09:05:49;;;;;;;30.83;27.80;;;461.50;716.80;;;;;;4972299;28;20019;-58
2022/03/20 09:08:15;;;;;;;12.55;11.20;;;461.40;742.40;;;;;;4972545;28;20591;-55
2022/03/20 09:10:41;;;;;;;10.27;7.57;;;435.20;742.40;;;;;;4972130;28;20157;-56
2022/03/20 09:13:07;;;;;;;13.57;11.38;;;409.70;768.00;;;;;;4966373;28;20042;-52
2022/03/20 09:15:33;;;;;;;19.58;15.98;;;410.00;793.60;;;;;;4972265;28;20102;-51
2022/03/20 09:20:44;;;;;;;24.60;16.85;;;333.50;870.40;;;;;;4972408;28;20540;-51
2022/03/20 09:23:12;;;;;;;15.32;12.55;;;333.30;870.40;;;;;;4972027;28;20505;-54
2022/03/20 09:25:39;;;;;;;16.52;14.98;;;307.50;896.00;;;;;;4972018;28;20031;-52
2022/03/20 09:28:07;;;;;;;13.63;11.25;;;308.00;896.00;;;;;;4972287;28;20113;-51
2022/03/20 09:30:34;;;;;;;15.70;11.30;;;307.20;947.20;;;;;;4971763;28;20090;-52
2022/03/20 09:33:04;;;;;;;32.25;20.00;;;307.40;921.60;;;;;;4971933;28;20485;-52
2022/03/20 09:35:31;;;;;;;22.98;14.07;;;307.20;921.60;;;;;;4971835;28;20045;-52
2022/03/20 09:37:57;;;;;;;28.05;17.88;;;282.40;921.60;;;;;;4971954;28;20037;-56
2022/03/20 09:40:24;;;;;;;23.83;14.63;;;282.10;896.00;;;;;;4972085;28;20113;-51
2022/03/20 09:42:51;;;;;;;18.10;11.25;;;282.00;921.60;;;;;;4971687;28;20489;-51
2022/03/20 09:45:18;;;;;;;15.57;9.48;;;256.10;947.20;;;;;;4971984;28;20070;-53
2022/03/20 09:47:45;;;;;;;35.60;21.20;;;256.70;947.20;;;;;;4971850;28;20107;-54
2022/03/20 09:50:14;;;;;;;19.60;12.70;;;281.80;947.20;;;;;;4971654;28;20033;-55
2022/03/20 09:52:40;;;;;;;18.38;13.15;;;282.00;921.60;;;;;;4971551;28;20027;-55
2022/03/20 09:55:08;;;;;;;21.50;14.80;;;282.30;947.20;;;;;;4971844;28;20389;-54
2022/03/20 09:57:34;;;;;;;46.60;22.92;;;282.00;947.20;;;;;;4971110;28;20023;-60
2022/03/20 10:00:04;;;;;;;13.25;10.77;;;282.50;947.20;;;;;;4971466;28;20488;-56
2022/03/20 10:02:30;;;;;;;12.00;8.52;;;281.80;947.20;;;;;;4971087;28;20035;-57
2022/03/20 10:04:59;;;;;;;17.92;12.25;;;281.90;921.60;;;;;;4971618;28;20045;-60
2022/03/20 10:07:30;;;;;;;14.10;9.35;;;281.70;921.60;;;;;;4971571;28;20443;-60
2022/03/20 10:10:10;;;;;;;17.77;10.77;;;281.80;921.60;;;;;;4971586;28;20030;-56
2022/03/20 10:12:41;;;;;;;22.60;15.70;;;281.70;947.20;;;;;;4971451;28;20026;-55
2022/03/20 10:15:09;;;;;;;23.05;13.02;;;282.10;921.60;;;;;;4971423;28;20033;-59
2022/03/20 10:17:36;;;;;;;21.95;13.50;;;307.20;972.80;;;;;;4971364;28;20110;-56
2022/03/20 10:20:13;;;;;;;17.67;11.73;;;307.30;947.20;;;;;;4971229;28;20019;-56
2022/03/20 10:22:39;;;;;;;123.38;91.85;;;282.20;947.20;;;;;;4971023;28;20425;-56
2022/03/20 10:25:08;;;;;;;25.83;15.60;;;281.70;972.80;;;;;;4971381;28;20039;-56
2022/03/20 10:27:34;;;;;;;24.10;15.93;;;281.80;972.80;;;;;;4971257;28;20062;-56
2022/03/20 10:30:00;;;;;;;16.58;11.07;;;282.10;972.80;;;;;;4970929;28;20058;-55
2022/03/20 10:32:26;;;;;;;18.60;10.82;;;282.00;972.80;;;;;;4971242;28;20062;-56
2022/03/20 10:35:04;;;;;;;16.98;12.50;;;281.70;972.80;;;;;;4963082;28;20055;-56
2022/03/20 10:37:48;;;;;;;23.73;15.60;;;281.60;998.40;;;;;;4971160;28;20038;-56
2022/03/20 10:40:20;;;;;;;15.77;9.68;;;281.70;998.40;;;;;;4971252;28;20023;-55
2022/03/20 10:43:13;;;;;;;14.48;8.30;;;281.60;1024.00;;;;;;4971074;28;20031;-55
2022/03/20 10:46:05;;;;;;;15.87;13.20;;;281.60;998.40;;;;;;4971067;28;20126;-56
2022/03/20 10:48:35;;;;;;;14.30;11.75;;;281.80;1024.00;;;;;;4967498;28;20264;-56
2022/03/20 10:51:02;;;;;;;10.32;6.82;;;281.70;1049.60;;;;;;4970836;28;20034;-56
2022/03/20 10:53:28;;;;;;;15.68;9.35;;;282.00;998.40;;;;;;4970921;28;20051;-56
2022/03/20 10:56:05;;;;;;;11.75;7.85;;;281.80;998.40;;;;;;4971111;28;20437;-56
2022/03/20 10:58:31;;;;;;;15.43;7.95;;;281.70;998.40;;;;;;4970891;28;20059;-56
2022/03/20 11:00:56;;;;;;;16.80;12.00;;;281.60;998.40;;;;;;4970940;28;20406;-55
2022/03/20 11:03:23;;;;;;;21.48;14.27;;;256.90;998.40;;;;;;4970539;28;20137;-61
2022/03/20 11:05:54;;;;;;;20.45;13.20;;;256.80;998.40;;;;;;4970693;28;20544;-55
2022/03/20 11:08:19;;;;;;;30.80;18.98;;;256.80;998.40;;;;;;4970942;28;20045;-56
2022/03/20 11:10:48;;;;;;;19.45;11.43;;;281.70;1024.00;;;;;;4974682;28;20529;-56
2022/03/20 11:13:18;;;;;;;15.65;9.07;;;256.90;998.40;;;;;;4974740;28;20035;-60
2022/03/20 11:15:45;;;;;;;29.23;19.15;;;256.90;998.40;;;;;;4974702;28;20027;-56
2022/03/20 11:18:14;;;;;;;50.17;24.20;;;281.90;1024.00;;;;;;4974330;28;20127;-56
2022/03/20 11:20:44;;;;;;;46.78;31.25;;;281.80;1024.00;;;;;;4974441;28;20034;-60
2022/03/20 11:23:17;;;;;;;23.77;16.38;;;282.20;1024.00;;;;;;4974349;28;20121;-55
2022/03/20 11:25:47;;;;;;;17.00;11.90;;;282.20;998.40;;;;;;4974415;28;20022;-56
2022/03/20 11:28:14;;;;;;;15.27;10.07;;;282.10;1024.00;;;;;;4974541;28;20038;-56
2022/03/20 11:30:44;;;;;;;22.38;16.50;;;281.60;1024.00;;;;;;4973991;28;20034;-58
2022/03/20 11:33:10;;;;;;;33.17;21.42;;;281.80;1024.00;;;;;;4974081;28;20050;-56
2022/03/20 11:35:37;;;;;;;25.35;19.17;;;282.10;1024.00;;;;;;4974519;28;20030;-56
2022/03/20 11:38:25;;;;;;;13.23;10.40;;;307.20;1049.60;;;;;;4973289;28;20390;-55
2022/03/20 11:41:16;;;;;;;11.85;7.63;;;282.50;998.40;;;;;;4973964;28;20039;-58
2022/03/20 11:43:44;;;;;;;9.80;5.82;;;282.00;998.40;;;;;;4973931;28;20397;-60
2022/03/20 11:46:25;;;;;;;11.00;6.20;;;281.80;998.40;;;;;;4973957;28;20070;-55
2022/03/20 11:49:13;;;;;;;20.85;13.77;;;282.10;1024.00;;;;;;4973974;28;20027;-55
2022/03/20 11:52:08;;;;;;;15.73;10.18;;;307.20;1024.00;;;;;;4973734;28;20027;-57
2022/03/20 11:54:42;;;;;;;18.52;11.73;;;282.40;1024.00;;;;;;4974008;28;20122;-60
2022/03/20 11:57:38;;;;;;;12.10;7.88;;;282.20;998.40;;;;;;4973509;28;20085;-55
2022/03/20 12:00:16;;;;;;;18.67;11.40;;;282.20;1024.00;;;;;;4895457;29;20056;-55
2022/03/20 12:02:45;;;;;;;15.00;8.02;;;282.20;998.40;;;;;;4895073;29;20029;-55
2022/03/20 12:05:37;;;;;;;19.35;13.45;;;281.90;1024.00;;;;;;4895313;29;20044;-55
2022/03/20 12:08:27;;;;;;;10.25;7.03;;;282.20;1024.00;;;;;;4895433;29;20089;-55
2022/03/20 12:11:04;;;;;;;21.05;13.60;;;282.10;998.40;;;;;;4887723;29;20032;-56
2022/03/20 12:13:33;;;;;;;16.50;9.43;;;282.40;998.40;;;;;;4894994;29;20041;-57
2022/03/20 12:15:59;;;;;;;12.95;7.90;;;282.20;998.40;;;;;;4894898;29;20097;-56
2022/03/20 12:18:24;;;;;;;19.75;13.15;;;282.20;972.80;;;;;;4895159;29;20482;-56
2022/03/20 12:21:05;;;;;;;16.40;8.93;;;282.30;972.80;;;;;;4894318;29;20032;-59
2022/03/20 12:23:40;;;;;;;14.77;10.57;;;282.00;972.80;;;;;;4894756;29;20049;-57
2022/03/20 12:26:31;;;;;;;19.65;12.05;;;282.50;998.40;;;;;;4895107;29;20028;-56
2022/03/20 12:29:34;;;;;;;10.30;5.70;;;282.20;998.40;;;;;;4894613;29;20051;-56
2022/03/20 12:32:06;;;;;;;19.90;12.88;;;281.80;998.40;;;;;;4887912;29;20101;-56
2022/03/20 12:34:33;;;;;;;13.20;9.73;;;282.00;1024.00;;;;;;4894589;29;20041;-55
2022/03/20 12:37:28;;;;;;;57.90;32.85;;;281.90;998.40;;;;;;4921581;29;20105;-56
2022/03/20 12:39:55;;;;;;;23.75;14.25;;;282.20;972.80;;;;;;4875236;29;20041;-55
2022/03/20 12:42:22;;;;;;;17.60;10.77;;;282.20;972.80;;;;;;4875486;29;20041;-56
2022/03/20 12:44:50;;;;;;;31.75;18.00;;;282.50;972.80;;;;;;4875835;29;20519;-55
2022/03/20 12:47:22;;;;;;;10.57;7.60;;;282.40;998.40;;;;;;4875877;29;20423;-60